createdAt,value
2023-08-02T00:02:09.691Z,1.60
2023-08-02T00:05:11.370Z,1.50
2023-08-02T00:08:12.960Z,2.25
2023-08-02T00:11:18.519Z,1.35
2023-08-02T00:14:20.266Z,2.08
2023-08-02T00:17:22.108Z,1.48
2023-08-02T00:20:23.719Z,2.20
2023-08-02T00:23:25.361Z,1.52
2023-08-02T00:26:28.790Z,1.27
2023-08-02T00:29:30.424Z,1.08
2023-08-02T00:32:32.091Z,1.92
2023-08-02T00:35:33.731Z,1.50
2023-08-02T00:38:35.348Z,1.13
2023-08-02T00:41:36.941Z,1.25
2023-08-02T00:44:38.540Z,0.98
2023-08-02T00:47:40.284Z,1.15
2023-08-02T00:50:41.908Z,1.20
2023-08-02T00:53:44.593Z,1.15
2023-08-02T00:56:46.725Z,1.05
2023-08-02T00:59:48.390Z,1.42
2023-08-02T01:02:50.637Z,0.70
2023-08-02T01:05:59.917Z,1.90
2023-08-02T01:09:22.005Z,1.55
2023-08-02T01:12:25.681Z,1.52
2023-08-02T01:15:28.438Z,1.63
2023-08-02T01:18:30.295Z,1.27
2023-08-02T01:21:31.927Z,1.38
2023-08-02T01:24:35.706Z,1.63
2023-08-02T01:27:52.370Z,1.25
2023-08-02T01:30:55.262Z,1.35
2023-08-02T01:33:59.376Z,1.02
2023-08-02T01:37:01.074Z,2.70
2023-08-02T01:40:06.362Z,1.35
2023-08-02T01:43:08.108Z,1.42
2023-08-02T01:46:09.931Z,1.30
2023-08-02T01:49:11.661Z,1.42
2023-08-02T01:52:13.416Z,2.13
2023-08-02T01:55:15.175Z,1.67
2023-08-02T01:58:16.822Z,1.60
2023-08-02T02:01:18.465Z,2.22
2023-08-02T02:04:20.075Z,1.38
2023-08-02T02:07:21.796Z,2.10
2023-08-02T02:10:23.413Z,2.03
2023-08-02T02:13:25.876Z,1.85
2023-08-02T02:16:27.551Z,1.65
2023-08-02T02:19:29.182Z,2.08
2023-08-02T02:22:30.886Z,2.72
2023-08-02T02:25:32.657Z,1.92
2023-08-02T02:28:34.277Z,2.03
2023-08-02T02:31:35.992Z,2.33
2023-08-02T02:34:37.715Z,2.38
2023-08-02T02:37:39.951Z,1.60
2023-08-02T02:40:41.569Z,2.42
2023-08-02T02:43:43.147Z,2.08
2023-08-02T02:46:45.066Z,2.08
2023-08-02T02:49:46.864Z,2.53
2023-08-02T02:52:48.680Z,2.08
2023-08-02T02:55:50.348Z,2.00
2023-08-02T02:58:51.984Z,1.63
2023-08-02T03:01:53.661Z,2.30
2023-08-02T03:04:55.336Z,1.80
2023-08-02T03:07:56.947Z,1.70
2023-08-02T03:10:58.622Z,1.52
2023-08-02T03:14:02.184Z,1.88
2023-08-02T03:17:04.027Z,1.48
2023-08-02T03:20:06.604Z,1.20
2023-08-02T03:23:08.798Z,1.63
2023-08-02T03:26:10.682Z,1.75
2023-08-02T03:29:12.305Z,1.25
2023-08-02T03:32:14.073Z,1.42
2023-08-02T03:35:15.890Z,1.45
2023-08-02T03:38:17.826Z,1.02
2023-08-02T03:41:19.575Z,1.13
2023-08-02T03:44:21.467Z,1.17
2023-08-02T03:47:23.173Z,1.13
2023-08-02T03:50:24.911Z,0.93
2023-08-02T03:53:27.747Z,1.17
2023-08-02T03:56:29.396Z,1.13
2023-08-02T03:59:30.994Z,1.17
2023-08-02T04:02:33.742Z,0.63
2023-08-02T04:05:35.419Z,1.63
2023-08-02T04:08:37.000Z,1.15
2023-08-02T04:11:38.591Z,1.02
2023-08-02T04:14:40.179Z,0.43
2023-08-02T04:17:41.928Z,0.80
2023-08-02T04:20:43.659Z,0.85
2023-08-02T04:23:45.315Z,1.33
2023-08-02T04:26:47.009Z,0.65
2023-08-02T04:29:50.418Z,0.90
2023-08-02T04:32:52.131Z,0.90
2023-08-02T04:35:53.863Z,0.82
2023-08-02T04:38:55.597Z,0.85
2023-08-02T04:42:01.646Z,0.70
2023-08-02T04:45:03.376Z,0.68
2023-08-02T04:48:05.198Z,0.68
2023-08-02T04:51:08.831Z,0.90
2023-08-02T04:54:10.510Z,0.98
2023-08-02T04:57:12.144Z,0.52
2023-08-02T05:00:14.116Z,1.20
2023-08-02T05:03:15.774Z,0.60
2023-08-02T05:06:17.429Z,0.70
2023-08-02T05:09:19.102Z,0.68
2023-08-02T05:12:20.990Z,0.70
2023-08-02T05:15:22.653Z,0.90
2023-08-02T05:18:24.308Z,0.63
2023-08-02T05:21:25.997Z,0.98
2023-08-02T05:24:27.631Z,0.60
2023-08-02T05:27:29.714Z,0.63
2023-08-02T05:30:32.887Z,0.75
2023-08-02T05:33:34.513Z,0.35
2023-08-02T05:36:36.219Z,0.63
2023-08-02T05:39:37.808Z,0.80
2023-08-02T05:42:39.888Z,0.63
2023-08-02T05:45:41.672Z,1.02
2023-08-02T05:48:43.341Z,1.48
2023-08-02T05:51:45.282Z,0.60
2023-08-02T05:54:47.073Z,0.90
2023-08-02T05:57:54.724Z,0.80
2023-08-02T06:00:56.475Z,1.02
2023-08-02T06:03:58.192Z,0.95
2023-08-02T06:06:59.857Z,0.80
2023-08-02T06:10:01.913Z,0.65
2023-08-02T06:13:03.558Z,0.73
2023-08-02T06:16:05.903Z,0.73
2023-08-02T06:19:07.553Z,0.90
2023-08-02T06:22:10.030Z,0.52
2023-08-02T06:25:11.670Z,0.63
2023-08-02T06:28:13.279Z,0.38
2023-08-02T06:31:14.942Z,0.60
2023-08-02T06:34:16.629Z,0.40
2023-08-02T06:37:18.230Z,0.88
2023-08-02T06:40:20.607Z,1.02
2023-08-02T06:43:22.289Z,1.02
2023-08-02T06:46:24.001Z,0.52
2023-08-02T06:49:25.636Z,0.82
2023-08-02T06:52:27.328Z,0.70
2023-08-02T06:55:28.929Z,0.77
2023-08-02T06:58:31.089Z,0.85
2023-08-02T07:01:32.845Z,0.60
2023-08-02T07:04:34.559Z,0.95
2023-08-02T07:07:36.237Z,0.82
2023-08-02T07:10:37.816Z,0.90
2023-08-02T07:13:43.699Z,0.77
2023-08-02T07:16:45.367Z,1.13
2023-08-02T07:19:47.014Z,0.50
2023-08-02T07:22:48.692Z,0.75
2023-08-02T07:25:50.332Z,0.65
2023-08-02T07:28:52.269Z,0.82
2023-08-02T07:31:54.039Z,0.35
2023-08-02T07:34:55.715Z,1.02
2023-08-02T07:37:57.392Z,0.43
2023-08-02T07:40:59.034Z,0.35
2023-08-02T07:44:00.693Z,0.73
2023-08-02T07:47:02.386Z,0.55
2023-08-02T07:50:05.324Z,0.73
2023-08-02T07:53:08.350Z,0.88
2023-08-02T07:56:10.582Z,0.57
2023-08-02T07:59:12.268Z,0.40
2023-08-02T08:02:14.131Z,0.60
2023-08-02T08:05:15.859Z,0.63
2023-08-02T08:08:18.126Z,0.63
2023-08-02T08:11:22.440Z,0.60
2023-08-02T08:14:25.701Z,0.50
2023-08-02T08:17:27.361Z,0.55
2023-08-02T08:20:29.005Z,0.40
2023-08-02T08:23:34.666Z,0.20
2023-08-02T08:26:36.408Z,0.30
2023-08-02T08:29:37.994Z,0.30
2023-08-02T08:32:39.684Z,0.45
2023-08-02T08:35:41.618Z,0.40
2023-08-02T08:38:45.104Z,0.70
2023-08-02T08:41:47.254Z,0.50
2023-08-02T08:44:48.929Z,0.40
2023-08-02T08:47:52.052Z,0.50
2023-08-02T08:50:57.348Z,0.70
2023-08-02T08:54:05.638Z,0.52
2023-08-02T08:57:09.390Z,0.52
2023-08-02T09:00:11.735Z,0.75
2023-08-02T09:03:16.600Z,0.50
2023-08-02T09:06:18.798Z,0.45
2023-08-02T09:09:20.525Z,0.73
2023-08-02T09:12:24.683Z,0.63
2023-08-02T09:15:26.308Z,0.70
2023-08-02T09:18:47.721Z,0.70
2023-08-02T09:22:09.317Z,0.32
2023-08-02T09:25:28.713Z,0.70
2023-08-02T09:28:30.316Z,0.50
2023-08-02T09:31:34.897Z,0.73
2023-08-02T09:35:06.126Z,0.63
2023-08-02T09:38:11.372Z,0.75
2023-08-02T09:41:51.616Z,0.57
2023-08-02T09:44:58.914Z,0.60
2023-08-02T09:48:00.606Z,0.75
2023-08-02T09:51:04.726Z,0.57
2023-08-02T09:54:09.542Z,0.40
2023-08-02T09:57:11.294Z,0.55
2023-08-02T10:00:13.446Z,0.40
2023-08-02T10:03:24.896Z,0.77
2023-08-02T10:06:51.025Z,0.52
2023-08-02T10:09:56.363Z,0.40
2023-08-02T10:13:08.080Z,0.43
2023-08-02T10:16:14.069Z,0.73
2023-08-02T10:22:19.392Z,0.60
2023-08-02T10:25:22.171Z,1.10
2023-08-02T10:28:24.514Z,0.60
2023-08-02T10:31:26.964Z,0.57
2023-08-02T10:34:37.963Z,0.65
2023-08-02T10:37:59.835Z,1.10
2023-08-02T10:41:16.190Z,0.88
2023-08-02T10:44:19.431Z,0.45
2023-08-02T10:47:28.960Z,0.98
2023-08-02T10:50:46.202Z,0.70
2023-08-02T10:54:13.288Z,0.52
2023-08-02T10:57:16.043Z,0.50
2023-08-02T11:00:20.268Z,0.50
2023-08-02T11:03:31.961Z,0.55
2023-08-02T11:06:36.142Z,0.70
2023-08-02T11:09:38.163Z,0.30
2023-08-02T11:12:39.828Z,0.60
2023-08-02T11:15:41.560Z,0.52
2023-08-02T11:18:50.903Z,0.60
2023-08-02T11:21:53.961Z,0.60
2023-08-02T11:24:57.427Z,0.52
2023-08-02T11:28:04.310Z,0.50
2023-08-02T11:31:06.729Z,0.40
2023-08-02T11:34:08.478Z,0.73
2023-08-02T11:37:10.790Z,0.98
2023-08-02T11:40:25.514Z,0.22
2023-08-02T11:43:38.130Z,0.95
2023-08-02T11:46:40.110Z,0.75
2023-08-02T11:49:53.272Z,0.55
2023-08-02T11:53:08.292Z,0.52
2023-08-02T11:56:10.288Z,0.73
2023-08-02T11:59:12.838Z,0.43
2023-08-02T12:02:27.429Z,0.85
2023-08-02T12:05:29.096Z,0.47
2023-08-02T12:08:30.756Z,1.13
2023-08-02T12:11:32.405Z,0.95
2023-08-02T12:14:36.186Z,1.02
2023-08-02T12:17:39.264Z,0.45
2023-08-02T12:20:40.919Z,0.80
2023-08-02T12:23:42.559Z,0.75
2023-08-02T12:26:45.181Z,0.65
2023-08-02T12:29:48.426Z,0.65
2023-08-02T12:32:50.176Z,1.17
2023-08-02T12:35:51.861Z,0.63
2023-08-02T12:38:53.639Z,1.13
2023-08-02T12:41:56.017Z,0.90
2023-08-02T12:45:07.989Z,0.90
2023-08-02T12:48:17.508Z,0.60
2023-08-02T12:51:19.121Z,1.13
2023-08-02T12:54:20.830Z,1.05
2023-08-02T12:57:22.656Z,0.88
2023-08-02T13:00:24.317Z,0.82
2023-08-02T13:03:26.026Z,0.77
2023-08-02T13:06:28.535Z,0.82
2023-08-02T13:09:30.370Z,0.45
2023-08-02T13:12:37.779Z,0.95
2023-08-02T13:15:39.886Z,0.85
2023-08-02T13:18:41.820Z,1.15
2023-08-02T13:21:43.502Z,0.90
2023-08-02T13:24:45.242Z,0.85
2023-08-02T13:27:47.303Z,0.93
2023-08-02T13:30:48.992Z,1.00
2023-08-02T13:33:50.670Z,0.75
2023-08-02T13:36:52.365Z,0.70
2023-08-02T13:39:56.633Z,0.70
2023-08-02T13:42:59.844Z,1.10
2023-08-02T13:46:01.523Z,0.93
2023-08-02T13:49:03.267Z,1.08
2023-08-02T13:52:05.904Z,0.90
2023-08-02T13:55:08.012Z,1.00
2023-08-02T13:58:09.760Z,1.10
2023-08-02T14:01:11.458Z,0.88
2023-08-02T14:04:13.208Z,0.80
2023-08-02T14:07:14.952Z,0.80
2023-08-02T14:10:16.688Z,0.73
2023-08-02T14:13:18.326Z,0.70
2023-08-02T14:16:19.992Z,1.05
2023-08-02T14:19:21.621Z,0.65
2023-08-02T14:22:23.276Z,0.70
2023-08-02T14:25:25.026Z,1.95
2023-08-02T14:28:26.587Z,2.90
2023-08-02T14:31:28.323Z,1.45
2023-08-02T14:34:30.066Z,2.05
2023-08-02T14:37:31.747Z,2.90
2023-08-02T14:40:34.684Z,1.58
2023-08-02T14:43:36.818Z,0.80
2023-08-02T14:46:38.827Z,0.70
2023-08-02T14:49:40.581Z,1.08
2023-08-02T14:52:42.319Z,0.98
2023-08-02T14:55:43.982Z,0.80
2023-08-02T14:58:45.598Z,0.90
2023-08-02T15:01:47.316Z,0.65
2023-08-02T15:04:48.973Z,1.30
2023-08-02T15:07:50.656Z,1.20
2023-08-02T15:10:53.880Z,1.30
2023-08-02T15:13:56.855Z,1.42
2023-08-02T15:16:58.499Z,1.45
2023-08-02T15:20:00.426Z,2.15
2023-08-02T15:23:02.472Z,1.50
2023-08-02T15:26:04.109Z,2.10
2023-08-02T15:29:05.684Z,1.63
2023-08-02T15:32:07.779Z,2.03
2023-08-02T15:35:09.517Z,1.55
2023-08-02T15:38:11.389Z,1.35
2023-08-02T15:41:12.977Z,1.20
2023-08-02T15:44:14.644Z,1.27
2023-08-02T15:47:16.286Z,1.52
2023-08-02T15:50:17.982Z,2.17
2023-08-02T15:53:19.634Z,1.88
2023-08-02T15:56:21.232Z,1.23
2023-08-02T15:59:22.929Z,1.30
2023-08-02T16:02:24.597Z,2.05
2023-08-02T16:05:26.211Z,1.55
2023-08-02T16:08:27.930Z,1.63
2023-08-02T16:11:29.569Z,1.08
2023-08-02T16:14:31.225Z,1.05
2023-08-02T16:17:32.860Z,1.02
2023-08-02T16:20:34.642Z,0.90
2023-08-02T16:23:36.589Z,1.38
2023-08-02T16:26:38.301Z,1.58
2023-08-02T16:29:39.908Z,1.15
2023-08-02T16:32:41.660Z,0.63
2023-08-02T16:35:45.345Z,0.88
2023-08-02T16:38:46.998Z,0.77
2023-08-02T16:41:48.652Z,0.93
2023-08-02T16:44:50.328Z,0.98
2023-08-02T16:47:51.950Z,0.50
2023-08-02T16:50:53.569Z,0.68
2023-08-02T16:53:55.162Z,0.55
2023-08-02T16:56:56.901Z,0.73
2023-08-02T16:59:58.527Z,0.57
2023-08-02T17:03:00.257Z,0.70
2023-08-02T17:06:01.975Z,1.00
2023-08-02T17:09:04.081Z,0.77
2023-08-02T17:12:06.648Z,0.68
2023-08-02T17:15:08.722Z,0.50
2023-08-02T17:18:10.382Z,0.90
2023-08-02T17:21:12.125Z,0.60
2023-08-02T17:24:13.860Z,0.98
2023-08-02T17:27:15.517Z,1.05
2023-08-02T17:30:17.127Z,0.90
2023-08-02T17:33:18.952Z,1.02
2023-08-02T17:36:20.683Z,1.20
2023-08-02T17:39:22.279Z,1.33
2023-08-02T17:42:25.101Z,1.02
2023-08-02T17:45:27.838Z,1.05
2023-08-02T17:48:30.008Z,1.55
2023-08-02T17:51:33.488Z,1.50
2023-08-02T17:54:35.159Z,0.82
2023-08-02T17:57:36.800Z,2.03
2023-08-02T18:00:40.074Z,1.35
2023-08-02T18:03:43.611Z,2.30
2023-08-02T18:06:45.387Z,1.85
2023-08-02T18:09:47.088Z,1.92
2023-08-02T18:12:48.755Z,1.67
2023-08-02T18:15:50.391Z,1.50
2023-08-02T18:18:52.021Z,1.30
2023-08-02T18:21:55.725Z,1.00
2023-08-02T18:24:57.363Z,1.33
2023-08-02T18:28:01.553Z,0.73
2023-08-02T18:31:03.305Z,0.85
2023-08-02T18:34:05.015Z,1.08
2023-08-02T18:37:07.205Z,0.60
2023-08-02T18:40:10.093Z,1.00
2023-08-02T18:43:13.941Z,1.02
2023-08-02T18:46:16.895Z,1.00
2023-08-02T18:49:18.729Z,1.08
2023-08-02T18:52:21.675Z,1.17
2023-08-02T18:55:23.380Z,1.02
2023-08-02T18:58:26.845Z,1.17
2023-08-02T19:01:29.448Z,1.13
2023-08-02T19:04:35.075Z,1.23
2023-08-02T19:07:38.352Z,0.93
2023-08-02T19:10:40.382Z,0.55
2023-08-02T19:13:45.072Z,1.73
2023-08-02T19:16:47.275Z,1.48
2023-08-02T19:19:49.341Z,1.67
2023-08-02T19:22:51.002Z,1.67
2023-08-02T19:25:53.033Z,1.30
2023-08-02T19:28:56.138Z,1.50
2023-08-02T19:31:59.792Z,1.77
2023-08-02T19:35:01.457Z,1.27
2023-08-02T19:38:04.757Z,1.35
2023-08-02T19:41:06.525Z,1.88
2023-08-02T19:44:08.955Z,1.70
2023-08-02T19:47:10.662Z,1.92
2023-08-02T19:50:12.305Z,1.90
2023-08-02T19:53:16.782Z,1.67
2023-08-02T19:56:25.201Z,2.03
2023-08-02T19:59:28.968Z,1.55
2023-08-02T20:02:30.621Z,2.00
2023-08-02T20:05:59.782Z,1.42
2023-08-02T20:09:01.464Z,1.60
2023-08-02T20:12:04.289Z,1.73
2023-08-02T20:15:09.470Z,1.70
2023-08-02T20:18:11.341Z,2.00
2023-08-02T20:21:21.863Z,2.10
2023-08-02T20:24:24.995Z,1.52
2023-08-02T20:27:26.645Z,1.67
2023-08-02T20:30:28.299Z,1.90
2023-08-02T20:33:29.930Z,2.75
2023-08-02T20:36:31.576Z,1.50
2023-08-02T20:39:33.235Z,1.60
2023-08-02T20:42:34.860Z,1.80
2023-08-02T20:45:36.983Z,1.52
2023-08-02T20:48:39.323Z,1.90
2023-08-02T20:51:46.918Z,1.77
2023-08-02T20:54:48.636Z,1.85
2023-08-02T20:57:52.213Z,2.25
2023-08-02T21:00:56.633Z,1.55
2023-08-02T21:04:01.734Z,1.55
2023-08-02T21:07:11.742Z,1.65
2023-08-02T21:10:27.796Z,1.58
2023-08-02T21:13:32.905Z,1.63
2023-08-02T21:16:35.177Z,1.42
2023-08-02T21:19:37.160Z,1.50
2023-08-02T21:22:38.836Z,1.42
2023-08-02T21:25:43.105Z,1.95
2023-08-02T21:28:44.883Z,1.40
2023-08-02T21:31:52.609Z,1.70
2023-08-02T21:34:54.923Z,1.02
2023-08-02T21:37:56.540Z,0.98
2023-08-02T21:41:01.234Z,1.05
2023-08-02T21:44:03.782Z,0.82
2023-08-02T21:47:06.365Z,1.05
2023-08-02T21:50:10.035Z,0.90
2023-08-02T21:53:20.567Z,0.98
2023-08-02T21:56:27.696Z,0.65
2023-08-02T21:59:29.364Z,0.55
2023-08-02T22:02:42.122Z,0.65
2023-08-02T22:08:50.209Z,1.08
2023-08-02T22:11:51.838Z,0.50
2023-08-02T22:15:04.471Z,0.30
2023-08-02T22:18:06.286Z,0.45
2023-08-02T22:21:08.315Z,0.60
2023-08-02T22:24:09.948Z,0.43
2023-08-02T22:27:11.533Z,0.32
2023-08-02T22:30:13.131Z,0.40
2023-08-02T22:33:14.860Z,0.30
2023-08-02T22:36:16.560Z,0.22
2023-08-02T22:39:18.179Z,0.30
2023-08-02T22:42:19.753Z,0.35
2023-08-02T22:45:21.563Z,0.32
2023-08-02T22:49:11.841Z,0.43
2023-08-02T22:51:44.892Z,0.30
2023-08-02T22:54:47.064Z,0.32
2023-08-02T22:57:48.697Z,0.60
2023-08-02T23:00:50.416Z,0.38
2023-08-02T23:03:53.085Z,0.57
2023-08-02T23:06:54.927Z,0.75
2023-08-02T23:10:00.287Z,0.63
2023-08-02T23:13:05.753Z,0.60
2023-08-02T23:16:11.272Z,0.95
2023-08-02T23:19:17.990Z,0.50
2023-08-02T23:22:19.750Z,0.68
2023-08-02T23:25:21.385Z,0.73
2023-08-02T23:28:23.455Z,0.65
2023-08-02T23:31:26.453Z,0.95
2023-08-02T23:34:28.117Z,0.80
2023-08-02T23:37:29.781Z,0.60
2023-08-02T23:40:31.481Z,1.45
2023-08-02T23:43:33.073Z,0.90
2023-08-02T23:46:35.004Z,0.93
2023-08-02T23:49:36.601Z,1.10
2023-08-02T23:52:38.272Z,1.02
2023-08-02T23:55:39.981Z,1.50
2023-08-02T23:58:41.564Z,1.20
